Ahmadi, Kuwait

7:58 AM AST on July 30, 2016 (GMT +0300)
Abdulaziz Bin Abdulrahman Al Saud Expressway | | Change Station

Elev 19 ft 29.20 °N, 48.11 °E | Updated 4 minutes ago

Clear
Clear
92.5 °F
Feels Like 95 °F
N
1.2
Wind Variable Wind from SSW
Gusts 3.1 mph

Today
High -- | Low -- °F
--% Chance of Precip.
Yesterday
High -- | Low -- °F
Precip. -- in
Pressure 29.53 in
Visibility 4.3 miles
Clouds Clear
Heat Index 95 °F
Dew Point 67 °F
Humidity 42%
Rainfall 0.00 in
Snow Depth Not available.
5:07 AM 6:40 PM
Waning Crescent, 16% visible
METAR OKBK 300400Z 00000KT 7000 SKC 34/13 Q1000 NOSIG
Pressure 29.53 in
Visibility 4.3 miles
Clouds Clear
Heat Index 95 °F
Dew Point 67 °F
Humidity 42%
Rainfall 0.00 in
Snow Depth Not available.
5:07 AM 6:40 PM
Waning Crescent, 16% visible
METAR OKBK 300400Z 00000KT 7000 SKC 34/13 Q1000 NOSIG

10-Day Weather Forecast

No radar image for this location.
×

Almanac

Astronomy

Jul. 30, 2016 Rise Set
Actual Time
Civil Twilight
Nautical Twilight
Astronomical Twilight
Moon
Length of Visible Light
Length of Day
Tomorrow will be .
, % of the Moon is Illuminated

Today's Extremes

Country Highs Country Lows

Community

WunderPhotos

Upload Photos

1,928,506 photos uploaded!

WunderBlog® & News

Nearby

Air Quality

  Air Quality AQ Index Pollutant
Not available.

Snow Depth

Station Depth Elevation

Earthquake Activity

City Distance Mag. Time & Date
Minimum magnitude displayed is 2.5.

Coastal Water Temperatures

Place Temperature

Stations

Nearby Weather Stations

Station Location Temp. Windchill Dew Point Humidity Wind Precip. Elev Updated Type